createdAt,value
2023-07-01T00:00:47.541Z,12.95
2023-07-01T00:01:47.353Z,12.95
2023-07-01T00:02:47.405Z,12.93
2023-07-01T00:03:47.361Z,12.97
2023-07-01T00:04:47.362Z,13.06
2023-07-01T00:05:47.331Z,13.12
2023-07-01T00:06:47.316Z,13.25
2023-07-01T00:07:47.304Z,13.40
2023-07-01T00:08:47.315Z,13.37
2023-07-01T00:09:47.289Z,13.29
2023-07-01T00:10:47.545Z,13.44
2023-07-01T00:11:47.290Z,13.51
2023-07-01T00:12:47.283Z,13.55
2023-07-01T00:13:47.270Z,13.69
2023-07-01T00:14:47.265Z,13.89
2023-07-01T00:15:47.270Z,13.94
2023-07-01T00:16:47.317Z,13.89
2023-07-01T00:17:47.270Z,13.83
2023-07-01T00:18:47.517Z,13.58
2023-07-01T00:19:47.235Z,13.61
2023-07-01T00:20:47.545Z,13.52
2023-07-01T00:21:47.229Z,13.54
2023-07-01T00:22:47.226Z,13.58
2023-07-01T00:23:47.257Z,13.40
2023-07-01T00:24:47.199Z,13.49
2023-07-01T00:25:47.212Z,13.44
2023-07-01T00:26:47.196Z,13.36
2023-07-01T00:27:47.184Z,13.44
2023-07-01T00:28:47.191Z,13.37
2023-07-01T00:29:47.154Z,13.49
2023-07-01T00:30:47.334Z,13.33
2023-07-01T00:31:47.222Z,13.46
2023-07-01T00:32:47.153Z,13.44
2023-07-01T00:33:47.149Z,13.33
2023-07-01T00:34:47.124Z,13.41
2023-07-01T00:35:47.142Z,13.51
2023-07-01T00:36:47.113Z,13.56
2023-07-01T00:37:47.108Z,13.77
2023-07-01T00:38:47.109Z,13.80
2023-07-01T00:39:47.105Z,13.70
2023-07-01T00:40:47.315Z,13.63
2023-07-01T00:41:47.084Z,13.62
2023-07-01T00:42:47.082Z,13.49
2023-07-01T00:43:47.985Z,13.58
2023-07-01T00:44:47.059Z,13.36
2023-07-01T00:45:47.081Z,13.29
2023-07-01T00:46:47.079Z,13.52
2023-07-01T00:47:47.079Z,13.55
2023-07-01T00:48:47.033Z,13.71
2023-07-01T00:49:47.026Z,13.89
2023-07-01T00:50:47.293Z,13.91
2023-07-01T00:51:47.024Z,13.94
2023-07-01T00:52:47.016Z,13.91
2023-07-01T00:53:46.999Z,13.88
2023-07-01T00:54:46.993Z,13.87
2023-07-01T00:55:46.993Z,13.84
2023-07-01T00:56:47.116Z,13.77
2023-07-01T00:57:46.991Z,13.77
2023-07-01T00:58:46.963Z,13.59
2023-07-01T00:59:46.956Z,13.62
2023-07-01T01:00:47.130Z,13.65
2023-07-01T01:01:47.067Z,13.59
2023-07-01T01:02:47.062Z,13.59
2023-07-01T01:03:47.149Z,13.52
2023-07-01T01:04:46.946Z,13.58
2023-07-01T01:05:46.914Z,13.55
2023-07-01T01:06:46.903Z,13.54
2023-07-01T01:07:46.969Z,13.65
2023-07-01T01:08:46.938Z,13.44
2023-07-01T01:09:47.884Z,13.58
2023-07-01T01:10:47.107Z,13.61
2023-07-01T01:11:46.876Z,13.58
2023-07-01T01:12:46.875Z,13.54
2023-07-01T01:13:46.871Z,13.59
2023-07-01T01:14:46.860Z,13.61
2023-07-01T01:15:46.872Z,13.71
2023-07-01T01:16:46.849Z,13.63
2023-07-01T01:17:46.878Z,13.67
2023-07-01T01:18:46.820Z,13.55
2023-07-01T01:19:46.853Z,13.65
2023-07-01T01:20:47.153Z,13.58
2023-07-01T01:21:46.807Z,13.58
2023-07-01T01:22:54.814Z,13.49
2023-07-01T01:23:48.793Z,13.56
2023-07-01T01:24:46.835Z,13.47
2023-07-01T01:25:46.778Z,13.44
2023-07-01T01:26:46.771Z,13.36
2023-07-01T01:27:46.766Z,13.33
2023-07-01T01:28:47.788Z,13.32
2023-07-01T01:29:46.864Z,13.21
2023-07-01T01:30:47.078Z,13.18
2023-07-01T01:31:46.843Z,13.03
2023-07-01T01:32:46.818Z,12.95
2023-07-01T01:33:46.736Z,13.00
2023-07-01T01:34:46.721Z,13.02
2023-07-01T01:35:46.738Z,13.02
2023-07-01T01:36:46.708Z,13.06
2023-07-01T01:37:46.700Z,13.11
2023-07-01T01:38:46.716Z,13.14
2023-07-01T01:39:46.701Z,13.03
2023-07-01T01:40:46.813Z,12.99
2023-07-01T01:41:46.692Z,12.97
2023-07-01T01:42:46.673Z,12.93
2023-07-01T01:43:46.680Z,12.95
2023-07-01T01:44:46.669Z,12.88
2023-07-01T01:45:46.679Z,12.93
2023-07-01T01:46:46.724Z,13.03
2023-07-01T01:47:46.682Z,13.07
2023-07-01T01:48:46.666Z,13.04
2023-07-01T01:49:46.637Z,13.06
2023-07-01T01:50:46.837Z,13.12
2023-07-01T01:51:46.628Z,13.14
2023-07-01T01:52:46.625Z,13.15
2023-07-01T01:53:46.630Z,12.95
2023-07-01T01:54:46.601Z,13.06
2023-07-01T01:55:46.613Z,13.04
2023-07-01T01:56:46.596Z,13.09
2023-07-01T01:57:46.584Z,13.03
2023-07-01T01:58:46.607Z,13.09
2023-07-01T01:59:46.574Z,12.92
2023-07-01T02:00:46.827Z,12.99
2023-07-01T02:01:46.577Z,12.95
2023-07-01T02:02:46.658Z,12.95
2023-07-01T02:03:46.759Z,12.99
2023-07-01T02:04:46.716Z,13.00
2023-07-01T02:05:46.611Z,13.11
2023-07-01T02:06:46.535Z,13.14
2023-07-01T02:07:46.542Z,13.17
2023-07-01T02:08:46.532Z,13.11
2023-07-01T02:09:46.508Z,13.06
2023-07-01T02:10:46.642Z,12.95
2023-07-01T02:11:46.517Z,12.99
2023-07-01T02:12:46.494Z,12.95
2023-07-01T02:13:46.480Z,12.99
2023-07-01T02:14:46.476Z,12.96
2023-07-01T02:15:46.481Z,13.07
2023-07-01T02:16:46.498Z,13.02
2023-07-01T02:17:46.561Z,13.09
2023-07-01T02:18:46.457Z,13.21
2023-07-01T02:19:46.445Z,13.07
2023-07-01T02:20:46.896Z,13.14
2023-07-01T02:21:46.425Z,13.25
2023-07-01T02:22:46.448Z,13.25
2023-07-01T02:23:46.442Z,13.21
2023-07-01T02:24:46.417Z,13.20
2023-07-01T02:25:46.420Z,13.20
2023-07-01T02:26:46.414Z,13.15
2023-07-01T02:27:46.397Z,13.29
2023-07-01T02:28:46.390Z,13.32
2023-07-01T02:29:46.385Z,13.36
2023-07-01T02:30:46.655Z,13.27
2023-07-01T02:31:46.372Z,13.22
2023-07-01T02:32:46.381Z,13.29
2023-07-01T02:33:46.379Z,13.27
2023-07-01T02:34:46.342Z,13.21
2023-07-01T02:35:46.339Z,13.18
2023-07-01T02:36:46.340Z,13.20
2023-07-01T02:37:46.323Z,13.12
2023-07-01T02:38:46.331Z,13.04
2023-07-01T02:39:46.305Z,13.09
2023-07-01T02:40:47.565Z,13.06
2023-07-01T02:41:46.329Z,13.07
2023-07-01T02:42:46.300Z,13.03
2023-07-01T02:43:46.297Z,13.22
2023-07-01T02:44:46.286Z,13.33
2023-07-01T02:45:46.284Z,13.51
2023-07-01T02:46:46.332Z,13.43
2023-07-01T02:47:46.306Z,13.41
2023-07-01T02:48:46.255Z,13.29
2023-07-01T02:49:47.808Z,13.06
2023-07-01T02:50:47.332Z,12.96
2023-07-01T02:51:46.238Z,12.97
2023-07-01T02:52:46.263Z,12.95
2023-07-01T02:53:46.231Z,12.95
2023-07-01T02:54:46.216Z,13.07
2023-07-01T02:55:46.215Z,13.18
2023-07-01T02:56:46.202Z,13.30
2023-07-01T02:57:46.203Z,13.22
2023-07-01T02:58:46.196Z,13.32
2023-07-01T02:59:46.206Z,13.22
2023-07-01T03:00:46.573Z,13.17
2023-07-01T03:01:48.067Z,13.20
2023-07-01T03:02:46.197Z,13.11
2023-07-01T03:03:46.273Z,12.89
2023-07-01T03:04:46.214Z,12.78
2023-07-01T03:05:46.166Z,12.66
2023-07-01T03:06:46.146Z,12.42
2023-07-01T03:07:46.154Z,12.39
2023-07-01T03:08:46.135Z,12.38
2023-07-01T03:09:46.132Z,12.24
2023-07-01T03:10:46.301Z,12.21
2023-07-01T03:11:46.110Z,12.13
2023-07-01T03:12:46.118Z,12.26
2023-07-01T03:13:46.107Z,12.23
2023-07-01T03:14:46.114Z,12.13
2023-07-01T03:15:46.148Z,12.08
2023-07-01T03:16:46.171Z,12.05
2023-07-01T03:17:46.133Z,12.05
2023-07-01T03:18:46.075Z,12.09
2023-07-01T03:19:46.086Z,12.01
2023-07-01T03:20:46.344Z,12.11
2023-07-01T03:21:46.053Z,12.09
2023-07-01T03:22:46.049Z,12.19
2023-07-01T03:23:46.063Z,12.26
2023-07-01T03:24:46.030Z,12.21
2023-07-01T03:25:46.058Z,12.12
2023-07-01T03:26:46.039Z,12.26
2023-07-01T03:27:46.039Z,12.29
2023-07-01T03:28:46.023Z,12.34
2023-07-01T03:29:46.003Z,12.42
2023-07-01T03:30:46.300Z,12.41
2023-07-01T03:31:46.044Z,12.38
2023-07-01T03:32:46.020Z,12.51
2023-07-01T03:33:45.982Z,12.46
2023-07-01T03:34:45.974Z,12.51
2023-07-01T03:35:46.006Z,12.48
2023-07-01T03:36:45.997Z,12.52
2023-07-01T03:37:46.010Z,12.48
2023-07-01T03:38:46.901Z,12.41
2023-07-01T03:39:45.948Z,12.46
2023-07-01T03:40:46.169Z,12.57
2023-07-01T03:41:45.923Z,12.70
2023-07-01T03:42:45.982Z,12.77
2023-07-01T03:43:45.938Z,12.93
2023-07-01T03:44:45.949Z,12.93
2023-07-01T03:45:45.964Z,13.02
2023-07-01T03:46:45.896Z,13.17
2023-07-01T03:47:46.083Z,13.32
2023-07-01T03:48:45.895Z,13.46
2023-07-01T03:49:45.935Z,13.41
2023-07-01T03:50:46.255Z,13.55
2023-07-01T03:51:45.868Z,13.62
2023-07-01T03:52:45.865Z,13.62
2023-07-01T03:53:45.869Z,13.69
2023-07-01T03:54:45.850Z,13.80
2023-07-01T03:55:45.903Z,13.87
2023-07-01T03:56:48.340Z,14.02
2023-07-01T03:57:45.819Z,14.13
2023-07-01T03:58:45.822Z,14.19
2023-07-01T03:59:45.839Z,14.25
2023-07-01T04:00:46.089Z,14.34
2023-07-01T04:01:45.852Z,14.32
2023-07-01T04:02:46.888Z,14.34
2023-07-01T04:03:45.897Z,14.34
2023-07-01T04:04:45.860Z,14.24
2023-07-01T04:05:45.796Z,14.31
2023-07-01T04:06:45.772Z,14.42
2023-07-01T04:07:45.770Z,14.46
2023-07-01T04:08:45.774Z,14.47
2023-07-01T04:09:45.779Z,14.38
2023-07-01T04:10:45.892Z,14.46
2023-07-01T04:11:45.767Z,14.50
2023-07-01T04:12:45.737Z,14.67
2023-07-01T04:13:45.728Z,14.67
2023-07-01T04:14:45.723Z,14.62
2023-07-01T04:15:45.710Z,14.67
2023-07-01T04:16:45.785Z,14.52
2023-07-01T04:17:45.796Z,14.47
2023-07-01T04:18:45.705Z,14.46
2023-07-01T04:19:45.684Z,14.28
2023-07-01T04:20:45.988Z,14.29
2023-07-01T04:21:45.684Z,14.14
2023-07-01T04:22:45.663Z,14.14
2023-07-01T04:23:45.684Z,14.04
2023-07-01T04:24:45.650Z,14.04
2023-07-01T04:25:45.652Z,13.95
2023-07-01T04:26:45.656Z,13.95
2023-07-01T04:27:45.636Z,13.81
2023-07-01T04:28:45.627Z,13.87
2023-07-01T04:29:45.616Z,13.99
2023-07-01T04:30:45.901Z,13.99
2023-07-01T04:31:45.698Z,14.04
2023-07-01T04:32:45.626Z,13.99
2023-07-01T04:33:45.575Z,13.96
2023-07-01T04:34:46.588Z,14.04
2023-07-01T04:35:45.573Z,13.95
2023-07-01T04:36:45.551Z,13.92
2023-07-01T04:37:46.572Z,13.96
2023-07-01T04:38:45.562Z,13.96
2023-07-01T04:39:45.553Z,13.88
2023-07-01T04:40:45.900Z,13.88
2023-07-01T04:41:45.548Z,13.92
2023-07-01T04:42:45.522Z,14.04
2023-07-01T04:43:45.519Z,13.96
2023-07-01T04:44:45.512Z,14.09
2023-07-01T04:45:45.497Z,14.17
2023-07-01T04:46:45.551Z,14.09
2023-07-01T04:47:45.535Z,14.21
2023-07-01T04:48:45.470Z,14.28
2023-07-01T04:49:45.468Z,14.24
2023-07-01T04:50:45.885Z,14.24
2023-07-01T04:51:45.454Z,14.29
2023-07-01T04:52:45.451Z,14.31
2023-07-01T04:53:45.461Z,14.25
2023-07-01T04:54:45.419Z,14.14
2023-07-01T04:55:45.440Z,14.10
2023-07-01T04:56:45.419Z,14.01
2023-07-01T04:57:45.414Z,14.06
2023-07-01T04:58:45.415Z,14.09
2023-07-01T04:59:45.403Z,14.07
2023-07-01T05:00:45.606Z,13.99
2023-07-01T05:01:45.425Z,14.02
2023-07-01T05:02:45.535Z,14.06
2023-07-01T05:03:45.407Z,13.95
2023-07-01T05:04:45.417Z,14.07
2023-07-01T05:05:45.348Z,13.96
2023-07-01T05:06:45.350Z,13.98
2023-07-01T05:07:45.409Z,13.99
2023-07-01T05:08:45.326Z,13.98
2023-07-01T05:09:45.324Z,14.02
2023-07-01T05:10:45.594Z,13.95
2023-07-01T05:11:45.306Z,14.09
2023-07-01T05:12:45.304Z,14.07
2023-07-01T05:13:46.298Z,14.16
2023-07-01T05:14:45.274Z,14.25
2023-07-01T05:15:45.293Z,14.27
2023-07-01T05:16:45.316Z,14.28
2023-07-01T05:17:45.299Z,14.42
2023-07-01T05:18:45.239Z,14.47
2023-07-01T05:19:45.237Z,14.42
2023-07-01T05:20:45.788Z,14.47
2023-07-01T05:21:46.221Z,14.57
2023-07-01T05:22:45.218Z,14.61
2023-07-01T05:23:45.207Z,14.62
2023-07-01T05:24:45.205Z,14.68
2023-07-01T05:25:45.204Z,14.78
2023-07-01T05:26:45.195Z,14.75
2023-07-01T05:27:45.205Z,14.86
2023-07-01T05:28:45.177Z,14.98
2023-07-01T05:29:45.166Z,14.93
2023-07-01T05:30:45.630Z,14.95
2023-07-01T05:31:45.185Z,15.03
2023-07-01T05:32:45.203Z,15.01
2023-07-01T05:33:45.135Z,15.11
2023-07-01T05:34:45.131Z,15.15
2023-07-01T05:35:45.150Z,15.12
2023-07-01T05:36:45.127Z,15.21
2023-07-01T05:37:45.113Z,15.28
2023-07-01T05:38:45.101Z,15.28
2023-07-01T05:39:45.093Z,15.46
2023-07-01T05:40:45.486Z,15.48
2023-07-01T05:41:45.176Z,15.60
2023-07-01T05:42:45.093Z,15.46
2023-07-01T05:43:45.065Z,15.52
2023-07-01T05:44:45.064Z,15.72
2023-07-01T05:45:45.051Z,15.79
2023-07-01T05:46:45.094Z,15.86
2023-07-01T05:47:45.054Z,16.07
2023-07-01T05:48:45.037Z,16.11
2023-07-01T05:49:45.013Z,16.23
2023-07-01T05:50:45.413Z,16.25
2023-07-01T05:51:45.009Z,16.34
2023-07-01T05:52:45.037Z,16.37
2023-07-01T05:53:44.990Z,16.41
2023-07-01T05:54:44.988Z,16.50
2023-07-01T05:55:44.999Z,16.59
2023-07-01T05:56:44.983Z,16.70
2023-07-01T05:57:44.955Z,16.70
2023-07-01T05:58:44.984Z,16.75
2023-07-01T05:59:44.970Z,16.83
2023-07-01T06:00:45.246Z,16.90
2023-07-01T06:01:44.981Z,16.95
2023-07-01T06:02:44.946Z,16.98
2023-07-01T06:03:44.964Z,16.92
2023-07-01T06:04:44.925Z,16.88
2023-07-01T06:05:44.900Z,16.92
2023-07-01T06:06:44.880Z,16.98
2023-07-01T06:07:44.892Z,16.96
2023-07-01T06:08:44.880Z,17.13
2023-07-01T06:09:44.877Z,17.20
2023-07-01T06:10:46.171Z,17.15
2023-07-01T06:11:44.914Z,17.15
2023-07-01T06:12:44.849Z,17.14
2023-07-01T06:13:44.838Z,17.32
2023-07-01T06:14:44.865Z,17.30
2023-07-01T06:15:44.863Z,17.40
2023-07-01T06:16:44.817Z,17.38
2023-07-01T06:17:44.878Z,17.43
2023-07-01T06:18:44.844Z,17.48
2023-07-01T06:19:44.792Z,17.59
2023-07-01T06:20:45.021Z,17.59
2023-07-01T06:21:44.774Z,17.57
2023-07-01T06:22:44.799Z,17.53
2023-07-01T06:23:44.783Z,17.54
2023-07-01T06:24:44.768Z,17.64
2023-07-01T06:25:45.764Z,17.79
2023-07-01T06:26:44.748Z,17.92
2023-07-01T06:27:44.748Z,18.02
2023-07-01T06:28:44.759Z,18.04
2023-07-01T06:29:44.746Z,18.04
2023-07-01T06:30:45.019Z,18.12
2023-07-01T06:31:44.884Z,18.24
2023-07-01T06:32:44.840Z,18.21
2023-07-01T06:33:44.757Z,18.17
2023-07-01T06:34:44.735Z,18.36
2023-07-01T06:35:44.691Z,18.42
2023-07-01T06:36:44.718Z,18.42
2023-07-01T06:37:44.717Z,18.55
2023-07-01T06:38:44.674Z,18.65
2023-07-01T06:39:44.676Z,18.84
2023-07-01T06:40:44.828Z,18.87
2023-07-01T06:41:44.681Z,19.01
2023-07-01T06:42:44.655Z,18.99
2023-07-01T06:43:44.655Z,19.05
2023-07-01T06:44:44.625Z,19.10
2023-07-01T06:45:44.744Z,19.24
2023-07-01T06:46:44.628Z,19.14
2023-07-01T06:47:44.659Z,19.06
2023-07-01T06:48:44.609Z,18.92
2023-07-01T06:49:44.599Z,18.82
2023-07-01T06:50:44.975Z,18.95
2023-07-01T06:51:44.604Z,18.87
2023-07-01T06:52:44.592Z,18.95
2023-07-01T06:53:44.578Z,19.02
2023-07-01T06:54:46.197Z,19.11
2023-07-01T06:55:44.557Z,19.32
2023-07-01T06:56:44.563Z,19.11
2023-07-01T06:57:44.548Z,19.23
2023-07-01T06:58:44.574Z,19.15
2023-07-01T06:59:44.530Z,19.20
2023-07-01T07:00:44.816Z,19.17
2023-07-01T07:01:44.616Z,19.31
2023-07-01T07:02:44.554Z,19.25
2023-07-01T07:03:44.686Z,19.43
2023-07-01T07:04:44.587Z,19.50
2023-07-01T07:05:45.382Z,19.57
2023-07-01T07:06:44.498Z,19.69
2023-07-01T07:07:44.500Z,19.80
2023-07-01T07:08:44.498Z,19.84
2023-07-01T07:09:44.510Z,19.94
2023-07-01T07:10:44.797Z,19.90
2023-07-01T07:11:44.455Z,19.93
2023-07-01T07:12:44.471Z,19.66
2023-07-01T07:13:44.436Z,19.54
2023-07-01T07:14:44.462Z,19.48
2023-07-01T07:15:44.448Z,19.58
2023-07-01T07:16:44.450Z,19.76
2023-07-01T07:17:44.505Z,19.72
2023-07-01T07:18:44.548Z,19.70
2023-07-01T07:19:44.443Z,19.60
2023-07-01T07:20:44.552Z,19.60
2023-07-01T07:21:44.404Z,19.63
2023-07-01T07:22:44.398Z,19.68
2023-07-01T07:23:44.378Z,19.76
2023-07-01T07:24:44.389Z,19.75
2023-07-01T07:25:44.362Z,19.70
2023-07-01T07:26:44.365Z,19.68
2023-07-01T07:27:44.370Z,19.66
2023-07-01T07:28:44.378Z,19.70
2023-07-01T07:29:44.341Z,19.93
2023-07-01T07:30:44.391Z,20.09
2023-07-01T07:31:44.402Z,20.02
2023-07-01T07:32:44.594Z,19.97
2023-07-01T07:33:44.330Z,20.03
2023-07-01T07:34:44.323Z,19.86
2023-07-01T07:35:44.321Z,20.02
2023-07-01T07:36:44.297Z,20.06
2023-07-01T07:37:44.286Z,20.10
2023-07-01T07:38:44.286Z,20.12
2023-07-01T07:39:44.268Z,19.90
2023-07-01T07:40:44.350Z,19.76
2023-07-01T07:41:44.265Z,19.84
2023-07-01T07:42:44.256Z,19.91
2023-07-01T07:43:44.257Z,20.02
2023-07-01T07:44:44.267Z,20.05
2023-07-01T07:45:44.231Z,20.24
2023-07-01T07:46:44.266Z,20.43
2023-07-01T07:47:44.287Z,20.42
2023-07-01T07:48:44.237Z,20.51
2023-07-01T07:49:44.208Z,20.72
2023-07-01T07:50:44.234Z,20.84
2023-07-01T07:51:44.192Z,21.06
2023-07-01T07:52:44.265Z,21.09
2023-07-01T07:53:44.202Z,21.11
2023-07-01T07:54:44.162Z,20.71
2023-07-01T07:55:44.163Z,20.39
2023-07-01T07:56:44.158Z,20.25
2023-07-01T07:57:44.138Z,20.12
2023-07-01T07:58:44.148Z,20.33
2023-07-01T07:59:44.174Z,20.34
2023-07-01T08:00:44.333Z,20.43
2023-07-01T08:01:44.169Z,20.43
2023-07-01T08:02:44.122Z,20.28
2023-07-01T08:03:44.189Z,20.31
2023-07-01T08:04:44.212Z,20.35
2023-07-01T08:05:44.097Z,20.39
2023-07-01T08:06:44.096Z,20.53
2023-07-01T08:07:44.084Z,20.47
2023-07-01T08:08:44.088Z,20.56
2023-07-01T08:09:44.061Z,20.65
2023-07-01T08:10:44.163Z,20.62
2023-07-01T08:11:44.041Z,20.43
2023-07-01T08:12:44.050Z,20.38
2023-07-01T08:13:44.063Z,20.41
2023-07-01T08:14:44.027Z,20.46
2023-07-01T08:15:44.022Z,20.51
2023-07-01T08:16:44.039Z,20.46
2023-07-01T08:17:44.069Z,20.68
2023-07-01T08:18:44.073Z,20.81
2023-07-01T08:19:43.998Z,20.51
2023-07-01T08:20:43.969Z,20.58
2023-07-01T08:21:43.960Z,20.69
2023-07-01T08:22:43.980Z,20.69
2023-07-01T08:23:43.960Z,20.54
2023-07-01T08:24:43.953Z,20.66
2023-07-01T08:25:43.941Z,20.56
2023-07-01T08:26:43.931Z,20.69
2023-07-01T08:27:43.945Z,20.66
2023-07-01T08:28:43.922Z,20.68
2023-07-01T08:29:43.907Z,20.59
2023-07-01T08:30:43.908Z,20.61
2023-07-01T08:31:43.921Z,20.64
2023-07-01T08:32:43.906Z,20.54
2023-07-01T08:33:43.876Z,20.51
2023-07-01T08:34:43.886Z,20.43
2023-07-01T08:35:44.285Z,20.25
2023-07-01T08:36:43.861Z,20.16
2023-07-01T08:37:43.863Z,20.20
2023-07-01T08:38:43.849Z,20.12
2023-07-01T08:39:43.879Z,20.08
2023-07-01T08:40:43.865Z,20.09
2023-07-01T08:41:43.826Z,20.13
2023-07-01T08:42:43.834Z,20.13
2023-07-01T08:43:43.814Z,20.24
2023-07-01T08:44:43.799Z,20.27
2023-07-01T08:45:43.801Z,20.30
2023-07-01T08:46:43.816Z,20.25
2023-07-01T08:47:43.882Z,20.39
2023-07-01T08:48:44.768Z,20.49
2023-07-01T08:49:43.764Z,20.61
2023-07-01T08:50:43.763Z,20.56
2023-07-01T08:51:43.749Z,20.65
2023-07-01T08:52:43.788Z,20.68
2023-07-01T08:53:43.733Z,20.62
2023-07-01T08:54:43.740Z,20.65
2023-07-01T08:55:43.729Z,20.84
2023-07-01T08:56:43.749Z,20.71
2023-07-01T08:57:43.739Z,20.79
2023-07-01T08:58:43.739Z,20.81
2023-07-01T08:59:43.740Z,20.84
2023-07-01T09:00:43.737Z,20.90
2023-07-01T09:01:43.707Z,20.68
2023-07-01T09:02:43.728Z,20.56
2023-07-01T09:03:43.743Z,20.62
2023-07-01T09:04:43.711Z,20.64
2023-07-01T09:05:43.654Z,20.61
2023-07-01T09:06:43.655Z,20.64
2023-07-01T09:07:43.649Z,20.49
2023-07-01T09:08:43.630Z,20.53
2023-07-01T09:09:43.630Z,20.58
2023-07-01T09:10:43.640Z,20.56
2023-07-01T09:11:43.616Z,20.69
2023-07-01T09:12:43.651Z,20.56
2023-07-01T09:13:43.604Z,20.77
2023-07-01T09:14:43.612Z,20.58
2023-07-01T09:15:43.609Z,20.72
2023-07-01T09:16:43.685Z,20.77
2023-07-01T09:17:44.608Z,20.77
2023-07-01T09:18:43.591Z,20.77
2023-07-01T09:19:43.567Z,20.71
2023-07-01T09:20:43.567Z,20.81
2023-07-01T09:21:43.547Z,20.95
2023-07-01T09:22:43.576Z,20.96
2023-07-01T09:23:43.543Z,21.16
2023-07-01T09:24:43.539Z,21.27
2023-07-01T09:25:43.514Z,21.24
2023-07-01T09:26:43.531Z,21.16
2023-07-01T09:27:43.721Z,21.23
2023-07-01T09:28:43.515Z,21.24
2023-07-01T09:29:43.511Z,21.34
2023-07-01T09:30:43.479Z,21.36
2023-07-01T09:31:43.514Z,21.27
2023-07-01T09:32:43.516Z,21.21
2023-07-01T09:33:43.484Z,21.20
2023-07-01T09:34:43.450Z,21.09
2023-07-01T09:35:43.448Z,21.04
2023-07-01T09:36:43.455Z,21.09
2023-07-01T09:37:43.437Z,21.16
2023-07-01T09:38:43.436Z,21.04
2023-07-01T09:39:43.418Z,21.04
2023-07-01T09:40:43.426Z,21.04
2023-07-01T09:41:43.407Z,20.95
2023-07-01T09:42:43.400Z,20.89
2023-07-01T09:43:43.421Z,20.87
2023-07-01T09:44:43.396Z,20.79
2023-07-01T09:45:43.391Z,20.65
2023-07-01T09:46:43.380Z,20.64
2023-07-01T09:47:43.409Z,20.69
2023-07-01T09:48:43.406Z,20.76
2023-07-01T09:49:43.360Z,20.79
2023-07-01T09:50:43.368Z,20.80
2023-07-01T09:51:43.354Z,20.76
2023-07-01T09:52:43.319Z,20.89
2023-07-01T09:53:43.323Z,20.83
2023-07-01T09:54:43.411Z,21.02
2023-07-01T09:55:43.322Z,21.04
2023-07-01T09:56:43.297Z,21.04
2023-07-01T09:57:43.287Z,21.16
2023-07-01T09:58:43.299Z,21.06
2023-07-01T09:59:43.304Z,21.11
2023-07-01T10:00:43.286Z,21.11
2023-07-01T10:01:43.291Z,21.24
2023-07-01T10:02:43.483Z,21.24
2023-07-01T10:03:43.361Z,21.20
2023-07-01T10:04:43.323Z,21.24
2023-07-01T10:05:43.260Z,21.39
2023-07-01T10:06:43.239Z,21.48
2023-07-01T10:07:43.229Z,21.59
2023-07-01T10:08:43.211Z,21.61
2023-07-01T10:09:43.222Z,21.57
2023-07-01T10:10:43.215Z,21.75
2023-07-01T10:11:43.205Z,21.57
2023-07-01T10:12:43.206Z,21.38
2023-07-01T10:13:43.201Z,21.26
2023-07-01T10:14:43.210Z,21.09
2023-07-01T10:15:43.209Z,20.95
2023-07-01T10:16:43.222Z,20.91
2023-07-01T10:17:43.212Z,20.91
2023-07-01T10:18:43.180Z,20.90
2023-07-01T10:19:43.149Z,20.87
2023-07-01T10:20:43.166Z,20.93
2023-07-01T10:21:43.130Z,21.05
2023-07-01T10:22:43.154Z,20.91
2023-07-01T10:23:43.117Z,20.72
2023-07-01T10:24:43.105Z,20.90
2023-07-01T10:25:43.115Z,20.74
2023-07-01T10:26:43.116Z,20.87
2023-07-01T10:27:43.102Z,20.80
2023-07-01T10:28:44.131Z,20.76
2023-07-01T10:29:43.087Z,20.91
2023-07-01T10:30:43.134Z,20.91
2023-07-01T10:31:43.070Z,20.86
2023-07-01T10:32:43.110Z,20.81
2023-07-01T10:33:43.054Z,20.80
2023-07-01T10:34:43.050Z,20.81
2023-07-01T10:35:43.036Z,20.90
2023-07-01T10:36:43.033Z,20.83
2023-07-01T10:37:43.038Z,20.95
2023-07-01T10:38:43.047Z,20.98
2023-07-01T10:39:43.083Z,20.95
2023-07-01T10:40:43.014Z,20.98
2023-07-01T10:41:42.997Z,21.16
2023-07-01T10:42:42.979Z,21.16
2023-07-01T10:43:42.991Z,21.14
2023-07-01T10:44:42.962Z,21.14
2023-07-01T10:45:42.966Z,21.23
2023-07-01T10:46:42.986Z,21.21
2023-07-01T10:47:42.964Z,21.19
2023-07-01T10:48:42.964Z,21.19
2023-07-01T10:49:42.936Z,21.19
2023-07-01T10:50:42.932Z,21.19
2023-07-01T10:51:42.924Z,21.19
2023-07-01T10:52:42.908Z,21.19
2023-07-01T10:53:42.934Z,21.32
2023-07-01T10:54:42.891Z,21.45
2023-07-01T10:55:42.899Z,21.57
2023-07-01T10:56:42.901Z,21.64
2023-07-01T10:57:42.880Z,21.91
2023-07-01T10:58:42.937Z,22.23
2023-07-01T10:59:43.862Z,22.56
2023-07-01T11:00:42.844Z,22.57
2023-07-01T11:01:42.914Z,22.71
2023-07-01T11:02:43.063Z,22.83
2023-07-01T11:03:42.949Z,22.96
2023-07-01T11:04:42.922Z,22.84
2023-07-01T11:05:42.811Z,22.71
2023-07-01T11:06:42.817Z,22.41
2023-07-01T11:07:43.069Z,22.01
2023-07-01T11:08:42.808Z,21.69
2023-07-01T11:09:42.787Z,21.38
2023-07-01T11:10:42.775Z,21.19
2023-07-01T11:11:42.788Z,20.96
2023-07-01T11:12:43.943Z,20.72
2023-07-01T11:13:42.791Z,20.79
2023-07-01T11:14:42.763Z,20.72
2023-07-01T11:15:42.748Z,20.93
2023-07-01T11:16:42.814Z,20.87
2023-07-01T11:17:42.750Z,20.95
2023-07-01T11:18:42.741Z,20.99
2023-07-01T11:19:42.732Z,20.80
2023-07-01T11:20:42.713Z,20.71
2023-07-01T11:21:42.711Z,20.68
2023-07-01T11:22:42.705Z,20.66
2023-07-01T11:23:42.708Z,20.58
2023-07-01T11:24:42.699Z,20.53
2023-07-01T11:25:42.682Z,20.51
2023-07-01T11:26:42.671Z,20.49
2023-07-01T11:27:42.697Z,20.43
2023-07-01T11:28:42.673Z,20.42
2023-07-01T11:29:42.660Z,20.42
2023-07-01T11:30:42.682Z,20.38
2023-07-01T11:31:42.710Z,20.41
2023-07-01T11:32:42.702Z,20.50
2023-07-01T11:33:42.623Z,20.49
2023-07-01T11:34:42.650Z,20.50
2023-07-01T11:35:42.636Z,20.50
2023-07-01T11:36:42.596Z,20.53
2023-07-01T11:37:42.649Z,20.31
2023-07-01T11:38:42.587Z,20.21
2023-07-01T11:39:42.576Z,20.23
2023-07-01T11:40:42.587Z,20.21
2023-07-01T11:41:42.559Z,20.12
2023-07-01T11:42:42.552Z,20.12
2023-07-01T11:43:42.561Z,20.00
2023-07-01T11:44:42.543Z,20.00
2023-07-01T11:45:42.546Z,20.12
2023-07-01T11:46:42.536Z,20.02
2023-07-01T11:47:42.566Z,20.16
2023-07-01T11:48:42.529Z,20.03
2023-07-01T11:49:42.537Z,19.93
2023-07-01T11:50:42.496Z,20.05
2023-07-01T11:51:42.515Z,19.98
2023-07-01T11:52:42.485Z,20.08
2023-07-01T11:53:42.504Z,19.95
2023-07-01T11:54:42.481Z,19.98
2023-07-01T11:55:42.498Z,19.98
2023-07-01T11:56:42.476Z,20.09
2023-07-01T11:57:42.460Z,20.06
2023-07-01T11:58:49.559Z,20.12
2023-07-01T11:59:44.446Z,20.13
2023-07-01T12:00:42.435Z,20.15
2023-07-01T12:01:42.460Z,20.06
2023-07-01T12:02:42.460Z,20.09
2023-07-01T12:03:42.434Z,20.13
2023-07-01T12:04:42.500Z,20.18
2023-07-01T12:05:42.432Z,20.08
2023-07-01T12:06:42.405Z,20.03
2023-07-01T12:07:42.392Z,20.06
2023-07-01T12:08:42.544Z,20.13
2023-07-01T12:09:42.515Z,20.00
2023-07-01T12:10:42.371Z,19.93
2023-07-01T12:11:42.370Z,20.09
2023-07-01T12:12:42.353Z,20.12
2023-07-01T12:13:42.353Z,20.03
2023-07-01T12:14:42.355Z,20.18
2023-07-01T12:15:42.377Z,20.16
2023-07-01T12:16:42.327Z,20.33
2023-07-01T12:17:42.346Z,20.28
2023-07-01T12:18:42.329Z,20.30
2023-07-01T12:19:42.317Z,20.25
2023-07-01T12:20:42.310Z,20.34
2023-07-01T12:21:42.307Z,20.34
2023-07-01T12:22:43.315Z,20.38
2023-07-01T12:23:42.296Z,20.50
2023-07-01T12:24:42.277Z,20.46
2023-07-01T12:25:42.269Z,20.61
2023-07-01T12:26:42.312Z,20.47
2023-07-01T12:27:42.260Z,20.38
2023-07-01T12:28:42.366Z,20.23
2023-07-01T12:29:42.244Z,20.03
2023-07-01T12:30:42.242Z,20.13
2023-07-01T12:31:42.311Z,20.06
2023-07-01T12:32:42.325Z,20.00
2023-07-01T12:33:42.217Z,20.16
2023-07-01T12:34:42.214Z,20.13
2023-07-01T12:35:44.448Z,20.05
2023-07-01T12:36:43.203Z,19.97
2023-07-01T12:37:42.228Z,19.84
2023-07-01T12:38:42.188Z,19.93
2023-07-01T12:39:42.178Z,19.98
2023-07-01T12:40:42.165Z,19.98
2023-07-01T12:41:43.812Z,20.02
2023-07-01T12:42:43.161Z,20.02
2023-07-01T12:43:42.158Z,20.05
2023-07-01T12:44:42.144Z,20.09
2023-07-01T12:45:42.187Z,20.30
2023-07-01T12:46:42.152Z,20.47
2023-07-01T12:47:42.145Z,20.41
2023-07-01T12:48:42.112Z,20.30
2023-07-01T12:49:42.106Z,20.39
2023-07-01T12:50:42.099Z,20.31
2023-07-01T12:51:42.184Z,20.23
2023-07-01T12:52:42.127Z,20.21